Startpagina
METAR-TAF:

METAR-TAF

Vliegvelden :

Anchorage, Alaska, Verenigde Staten

Internationale luchthaven Ted Stevens Anchorage

breedte: 61-10-28N, lengte: 149-59-46W, hoogte: 44 m

Actueel weer

Dit bericht is 40 minuten geleden gemaakt, om 12:53 UTC
Wind 3 kt uit het zuidwesten
Temperatuur 8°C
Vochtigheid 93%
Druk 1012 hPa
Zicht: 16.1 km
Verspreide wolken op 1300 ft
Gebroken wolken op 5000 ft
Gebroken wolken op 9000 ft

METAR: PANC 191253Z 22003KT 10SM SCT013 BKN050 BKN090 08/07 A2987 RMK AO2 SLP117 T00780072

Tijdstip: 05:33 (13:33 UTC)

Verwachting

Dit bericht is 2 uur en het 10 minuten geleden gemaakt, om 11:23 UTC
Verwachting geldig van 19 om 12 UTC tot 20 om 18 UTC
Wind 4 kt uit variabele richting
Zicht: 10 km
Verspreide wolken op 4000 ft
Geheel bewolkt op 9000 ft
Van 19 om 1800 UTC
Wind 4 kt uit variabele richting
Zicht: 10 km
Verspreide wolken op 3000 ft
Gebroken wolken op 6000 ft

TAF: PANC 191123Z 1912/2018 VRB04KT P6SM SCT040 OVC090 FM191800 VRB04KT P6SM SCT030 BKN060

Waarnemingen en weersverwachtingen van meer dan 4000 vliegvelden (METAR en TAF).

De beschikbare stations zijn de gele en rode punten op de kaart.

Ga met uw muis naar het station om de naam te zien.

Klik dan om waarnemingen en weersverwachtingen te zien.

kaart wijzigen: klik op de groene knoppen met een zwart kruis om in te zoomen, op de groene knop met een streepje om uit te zoomen of op de groene pijlen voor aangrenzende kaarten.


METAR-TAF: